Moonlight II — 9HFR8 — position and weather

sailwx.info

Track history (hours):
 
Tides and Currents Weather Stations Pressure Air Temp Water Temp Dewpoint Dewpoint Depression Visibility Wind Speed Wind Dir Waves Ship Positions

Moonlight II

Last reported at 2016-Aug-24 03:32 UTC. Time now 2016-Aug-26 03:13 UTC.
Position N 43°50' E 008°06'.

Length 82 m; draft 4.2 m.

Type: Ship. MMSI: 215934000.

Date/timePositionNaut miles runAvg speedWind from/ knotsBaromVisibWave heightAir tempDewpointWater temp
2016-Aug-24 03:32N 43°50' E 008°06'1313.2
2016-Aug-24 02:33N 43°56' E 008°22'1313.2
2016-Aug-24 01:33N 44°03' E 008°37'1313.1
2016-Aug-24 00:33N 44°09' E 008°53'1312.9
2016-Aug-23 23:33N 44°16' E 009°09'4 4.2
2016-Aug-23 22:33N 44°18' E 009°14'0 0.0
2016-Aug-23 21:27N 44°18' E 009°14'0 0.0
2016-Aug-23 20:27N 44°18' E 009°14'0 0.0
2016-Aug-23 19:33N 44°18' E 009°14'0 0.0
2016-Aug-23 17:27N 44°18' E 009°14'0 0.0
2016-Aug-23 16:30N 44°18' E 009°14'0 0.0
2016-Aug-23 15:09N 44°18' E 009°14'0 0.0
2016-Aug-23 14:21N 44°18' E 009°14'0 0.0
2016-Aug-23 13:27N 44°18' E 009°14'0 0.0
2016-Aug-23 12:27N 44°18' E 009°14'0 0.1
2016-Aug-23 11:27N 44°18' E 009°14'0 0.1
2016-Aug-23 10:30N 44°18' E 009°14'0 0.0
2016-Aug-23 09:33N 44°18' E 009°14'0 0.0
2016-Aug-23 08:33N 44°18' E 009°14'0 0.0
2016-Aug-23 07:27N 44°18' E 009°14'0 0.1
2016-Aug-23 06:33N 44°18' E 009°13'2 1.6
2016-Aug-23 05:33N 44°17' E 009°12'1110.8
2016-Aug-23 04:33N 44°12' E 008°59'1110.7
2016-Aug-23 03:33N 44°07' E 008°46'1110.6
2016-Aug-23 02:33N 44°01' E 008°33'2410.2
2016-Aug-23 00:14N 43°50' E 008°05'810.0
2016-Aug-22 23:28N 43°46' E 007°55'2010.4
2016-Aug-22 21:32N 43°44' E 007°27'1 0.0
2016-Aug-21 20:06N 43°43' E 007°26'814.4
2016-Aug-21 19:33N 43°38' E 007°19'1414.3
2016-Aug-21 18:33N 43°29' E 007°03'22 0.8
2016-Aug-20 14:11N 43°17' E 006°38'23 3.5
2016-Aug-20 07:33N 43°29' E 007°05'1312.8
2016-Aug-20 06:33N 43°37' E 007°18'9 1.1
2016-Aug-19 22:33N 43°44' E 007°26'0 0.1
2016-Aug-19 19:18N 43°44' E 007°26'4 4.2
2016-Aug-19 18:17N 43°42' E 007°21'0 0.0
2016-Aug-19 17:23N 43°42' E 007°21'0 0.0
2016-Aug-19 15:23N 43°42' E 007°21'0 0.0
2016-Aug-19 13:29N 43°42' E 007°21'0 0.0
2016-Aug-19 12:17N 43°42' E 007°21'0 0.0
2016-Aug-19 11:23N 43°42' E 007°21'  
2016-Aug-16 17:04N 43°44' E 007°26'4 8.6
2016-Aug-16 16:33N 43°41' E 007°22'1111.3
2016-Aug-16 15:33N 43°36' E 007°08'0 0.3
2016-Aug-16 14:29N 43°36' E 007°08'0 0.0
2016-Aug-16 13:29N 43°36' E 007°08'0 0.0
2016-Aug-16 12:29N 43°36' E 007°08'0 0.0
2016-Aug-16 11:29N 43°36' E 007°08'0 0.0
2016-Aug-16 10:29N 43°36' E 007°08'0 0.1
2016-Aug-16 09:29N 43°36' E 007°08'0 0.1
2016-Aug-16 08:29N 43°36' E 007°08'0 0.0
2016-Aug-16 07:29N 43°35' E 007°08'0 0.0
2016-Aug-16 06:17N 43°35' E 007°08'0 0.0
2016-Aug-16 04:29N 43°35' E 007°08'0 0.0
2016-Aug-16 03:29N 43°36' E 007°08'0 0.0
2016-Aug-16 02:29N 43°35' E 007°08'0 0.0
2016-Aug-16 01:29N 43°36' E 007°08'0 0.0
2016-Aug-16 00:29N 43°35' E 007°08'5 5.6
2016-Aug-15 23:33N 43°38' E 007°15'6 6.1
2016-Aug-15 22:32N 43°42' E 007°21'0 0.0
2016-Aug-15 21:32N 43°42' E 007°21'0 0.0
2016-Aug-15 20:32N 43°42' E 007°21'0 0.0
2016-Aug-15 19:26N 43°42' E 007°21'0 0.0
2016-Aug-15 18:26N 43°42' E 007°21'0 0.0
2016-Aug-15 17:33N 43°42' E 007°21'0 0.0
2016-Aug-15 16:33N 43°42' E 007°21'0 0.0
2016-Aug-15 15:33N 43°42' E 007°21'0 0.0
2016-Aug-15 14:34N 43°42' E 007°21'0 0.0
2016-Aug-15 13:34N 43°42' E 007°21'0 0.0
2016-Aug-15 12:33N 43°42' E 007°21'0 0.0
2016-Aug-15 11:29N 43°42' E 007°21'3 3.2
2016-Aug-15 10:29N 43°43' E 007°25'0 0.0
2016-Aug-14 17:33N 43°43' E 007°25'3 3.0
2016-Aug-14 16:30N 43°42' E 007°21'0 0.0
2016-Aug-14 15:33N 43°42' E 007°21'0 0.0
2016-Aug-14 14:33N 43°42' E 007°21'0 0.0
2016-Aug-14 13:33N 43°42' E 007°21'0 0.0
2016-Aug-14 12:33N 43°42' E 007°21'0 0.0
2016-Aug-14 11:33N 43°42' E 007°21'0 0.0
2016-Aug-14 10:33N 43°42' E 007°21'4 3.6
2016-Aug-14 09:29N 43°44' E 007°26'0 0.0
2016-Aug-14 08:25N 43°44' E 007°26'0 0.0
2016-Aug-14 07:17N 43°44' E 007°26'  
Track history (hours):
 
Tides and Currents Weather Stations Pressure Air Temp Water Temp Dewpoint Dewpoint Depression Visibility Wind Speed Wind Dir Waves Ship Positions

Moonlight II

Last reported at 2016-Aug-24 03:32 UTC. Time now 2016-Aug-26 03:13 UTC.
Position N 43°50' E 008°06'.

Length 82 m; draft 4.2 m.

Type: Ship. MMSI: 215934000.

Date/timePositionNaut miles runAvg speedWind from/ knotsBaromVisibWave heightAir tempDewpointWater temp
2016-Aug-24 03:32N 43°50' E 008°06'1313.2
2016-Aug-24 02:33N 43°56' E 008°22'1313.2
2016-Aug-24 01:33N 44°03' E 008°37'1313.1
2016-Aug-24 00:33N 44°09' E 008°53'1312.9
2016-Aug-23 23:33N 44°16' E 009°09'4 4.2
2016-Aug-23 22:33N 44°18' E 009°14'0 0.0
2016-Aug-23 21:27N 44°18' E 009°14'0 0.0
2016-Aug-23 20:27N 44°18' E 009°14'0 0.0
2016-Aug-23 19:33N 44°18' E 009°14'0 0.0
2016-Aug-23 17:27N 44°18' E 009°14'0 0.0
2016-Aug-23 16:30N 44°18' E 009°14'0 0.0
2016-Aug-23 15:09N 44°18' E 009°14'0 0.0
2016-Aug-23 14:21N 44°18' E 009°14'0 0.0
2016-Aug-23 13:27N 44°18' E 009°14'0 0.0
2016-Aug-23 12:27N 44°18' E 009°14'0 0.1
2016-Aug-23 11:27N 44°18' E 009°14'0 0.1
2016-Aug-23 10:30N 44°18' E 009°14'0 0.0
2016-Aug-23 09:33N 44°18' E 009°14'0 0.0
2016-Aug-23 08:33N 44°18' E 009°14'0 0.0
2016-Aug-23 07:27N 44°18' E 009°14'0 0.1
2016-Aug-23 06:33N 44°18' E 009°13'2 1.6
2016-Aug-23 05:33N 44°17' E 009°12'1110.8
2016-Aug-23 04:33N 44°12' E 008°59'1110.7
2016-Aug-23 03:33N 44°07' E 008°46'1110.6
2016-Aug-23 02:33N 44°01' E 008°33'2410.2
2016-Aug-23 00:14N 43°50' E 008°05'810.0
2016-Aug-22 23:28N 43°46' E 007°55'2010.4
2016-Aug-22 21:32N 43°44' E 007°27'1 0.0
2016-Aug-21 20:06N 43°43' E 007°26'814.4
2016-Aug-21 19:33N 43°38' E 007°19'1414.3
2016-Aug-21 18:33N 43°29' E 007°03'22 0.8
2016-Aug-20 14:11N 43°17' E 006°38'23 3.5
2016-Aug-20 07:33N 43°29' E 007°05'1312.8
2016-Aug-20 06:33N 43°37' E 007°18'9 1.1
2016-Aug-19 22:33N 43°44' E 007°26'0 0.1
2016-Aug-19 19:18N 43°44' E 007°26'4 4.2
2016-Aug-19 18:17N 43°42' E 007°21'0 0.0
2016-Aug-19 17:23N 43°42' E 007°21'0 0.0
2016-Aug-19 15:23N 43°42' E 007°21'0 0.0
2016-Aug-19 13:29N 43°42' E 007°21'0 0.0
2016-Aug-19 12:17N 43°42' E 007°21'0 0.0
2016-Aug-19 11:23N 43°42' E 007°21'  
2016-Aug-16 17:04N 43°44' E 007°26'4 8.6
2016-Aug-16 16:33N 43°41' E 007°22'1111.3
2016-Aug-16 15:33N 43°36' E 007°08'0 0.3
2016-Aug-16 14:29N 43°36' E 007°08'0 0.0
2016-Aug-16 13:29N 43°36' E 007°08'0 0.0
2016-Aug-16 12:29N 43°36' E 007°08'0 0.0
2016-Aug-16 11:29N 43°36' E 007°08'0 0.0
2016-Aug-16 10:29N 43°36' E 007°08'0 0.1
2016-Aug-16 09:29N 43°36' E 007°08'0 0.1
2016-Aug-16 08:29N 43°36' E 007°08'0 0.0
2016-Aug-16 07:29N 43°35' E 007°08'0 0.0
2016-Aug-16 06:17N 43°35' E 007°08'0 0.0
2016-Aug-16 04:29N 43°35' E 007°08'0 0.0
2016-Aug-16 03:29N 43°36' E 007°08'0 0.0
2016-Aug-16 02:29N 43°35' E 007°08'0 0.0
2016-Aug-16 01:29N 43°36' E 007°08'0 0.0
2016-Aug-16 00:29N 43°35' E 007°08'5 5.6
2016-Aug-15 23:33N 43°38' E 007°15'6 6.1
2016-Aug-15 22:32N 43°42' E 007°21'0 0.0
2016-Aug-15 21:32N 43°42' E 007°21'0 0.0
2016-Aug-15 20:32N 43°42' E 007°21'0 0.0
2016-Aug-15 19:26N 43°42' E 007°21'0 0.0
2016-Aug-15 18:26N 43°42' E 007°21'0 0.0
2016-Aug-15 17:33N 43°42' E 007°21'0 0.0
2016-Aug-15 16:33N 43°42' E 007°21'0 0.0
2016-Aug-15 15:33N 43°42' E 007°21'0 0.0
2016-Aug-15 14:34N 43°42' E 007°21'0 0.0
2016-Aug-15 13:34N 43°42' E 007°21'0 0.0
2016-Aug-15 12:33N 43°42' E 007°21'0 0.0
2016-Aug-15 11:29N 43°42' E 007°21'3 3.2
2016-Aug-15 10:29N 43°43' E 007°25'0 0.0
2016-Aug-14 17:33N 43°43' E 007°25'3 3.0
2016-Aug-14 16:30N 43°42' E 007°21'0 0.0
2016-Aug-14 15:33N 43°42' E 007°21'0 0.0
2016-Aug-14 14:33N 43°42' E 007°21'0 0.0
2016-Aug-14 13:33N 43°42' E 007°21'0 0.0
2016-Aug-14 12:33N 43°42' E 007°21'0 0.0
2016-Aug-14 11:33N 43°42' E 007°21'0 0.0
2016-Aug-14 10:33N 43°42' E 007°21'4 3.6
2016-Aug-14 09:29N 43°44' E 007°26'0 0.0
2016-Aug-14 08:25N 43°44' E 007°26'0 0.0
2016-Aug-14 07:17N 43°44' E 007°26'  

Dump ship's entire track history